Aérodrome :
LOGIN :

S'inscrire | Disclaimer

   EN    FR    IT 

 










Légende :    VFR   VFR Marginal   IFR   IFR Intensif   IFR Très Intensif
Visi : 
Plafond : 
>= 8 km
>= 3000ft
5 à 8 km
1000 à 3000 ft
1500m à 5 km
500 à 1000 ft
800 à 1500m
200 à 500 ft
< 800m
< 200 ft
Symboles :   Orages  Brouillard  Fortes neiges  Fortes précipitations  Vent > 20 kt
SIGMETs :   Divers  Orages  Givrage  Turbulence  Onde Orograph.  Cendres Volcan.







- Altitude de l'aérodrome : 1411 ft
- Code IATA : ZHI


LSZG - Grenchen

DERNIER METAR :
  • 261720Z AUTO 08005KT 9999 OVC033 05/03 Q1011

METARs EXPIRÉS :
  • 261650Z AUTO 10006KT 9999 -DZ SCT027 OVC042 05/03 Q1011
  • 261620Z AUTO 10006KT 9999 -RA BKN030 SCT050 06/03 Q1011
  • 261550Z 09008KT 9999 -RA FEW013 BKN028 06/03 Q1010 NOSIG
  • 261520Z 09007KT 9999 -RA FEW013 BKN024 06/03 Q1010 NOSIG
  • 261450Z 10008KT 9999 FEW013 BKN024 06/03 Q1010 NOSIG

TAF TAF LSZG
Valide du 26 à 15h jusqu'au 27 à 00h UTC


261425Z 2615/2624 06007KT 9999 SCT010 BKN015
TEMPO 2619/2624 RA BKN010
ATIS : +41 32 396 96 33
Pas de NOTAMs connus pour ce terrain.



MET'MAP, la Météo Aéronautique d'un coup d'oeil ! - Copyright ORBIFLY Décembre 2007 - Disclaimer

ORBIFLY MET'MAP TEAM :

Programmation & Développement : Alexandra Zaïnal
Conception & Développement : Baudouin d'Aumeries
Co-Programmation & Développement : Marc-Olivier Méhu
Soutien technique & logistique : Manuel Goepfert

Contact : metmap@orbifly.com




SOURCES & CREDITS :

   NOAA